Terminal Aerodrome Forecast
Issued by NWS

Current Version | Previous Version | Text Only | Print | Product List | Glossary On
Versions: 1 2 3 4 5 6 7 8 9 10 11 12 13 14 15 16 17
000
FTUS43 KAPX 301736
TAFPLN
TAF
KPLN 301736Z 3018/3118 30015G25KT P6SM BKN040
     FM302000 30012G21KT P6SM SCT050
     FM310000 VRB03KT P6SM BKN250
     FM311400 02007KT P6SM BKN250=

USA.gov is the U.S. government's official web portal to all federal, state and local government web resources and services.